createdAt,value
2018-01-17T00:00:36.594Z,20.65
2018-01-17T00:03:04.079Z,20.64
2018-01-17T00:05:31.744Z,20.64
2018-01-17T00:08:00.258Z,20.64
2018-01-17T00:10:27.908Z,20.63
2018-01-17T00:12:55.545Z,20.64
2018-01-17T00:15:23.856Z,20.64
2018-01-17T00:17:51.954Z,20.64
2018-01-17T00:20:19.509Z,20.63
2018-01-17T00:22:47.117Z,20.64
2018-01-17T00:25:15.776Z,20.64
2018-01-17T00:27:43.353Z,20.64
2018-01-17T00:30:11.024Z,20.64
2018-01-17T00:32:38.985Z,20.64
2018-01-17T00:35:07.260Z,20.65
2018-01-17T00:37:34.984Z,20.63
2018-01-17T00:40:02.600Z,20.64
2018-01-17T00:42:30.180Z,20.63
2018-01-17T00:44:57.771Z,20.62
2018-01-17T00:47:26.197Z,20.63
2018-01-17T00:49:53.745Z,20.62
2018-01-17T00:52:21.313Z,20.62
2018-01-17T00:54:48.928Z,20.62
2018-01-17T00:57:17.405Z,20.63
2018-01-17T00:59:45.014Z,20.62
2018-01-17T01:02:12.535Z,20.62
2018-01-17T01:04:40.117Z,20.62
2018-01-17T01:07:07.743Z,20.61
2018-01-17T01:09:35.240Z,20.61
2018-01-17T01:12:03.574Z,20.61
2018-01-17T01:14:31.165Z,20.61
2018-01-17T01:16:58.811Z,20.60
2018-01-17T01:19:26.448Z,20.61
2018-01-17T01:21:54.031Z,20.62
2018-01-17T01:24:21.592Z,20.62
2018-01-17T01:26:49.105Z,20.61
2018-01-17T01:29:16.747Z,20.61
2018-01-17T01:31:44.361Z,20.61
2018-01-17T01:34:11.969Z,20.61
2018-01-17T01:36:39.619Z,20.61
2018-01-17T01:39:07.340Z,20.61
2018-01-17T01:41:34.953Z,20.48
2018-01-17T01:44:02.599Z,20.60
2018-01-17T01:46:30.172Z,20.60
2018-01-17T01:49:01.574Z,20.59
2018-01-17T01:51:29.268Z,20.59
2018-01-17T01:54:04.385Z,20.58
2018-01-17T01:56:31.965Z,20.56
2018-01-17T01:58:59.622Z,20.58
2018-01-17T02:01:28.275Z,20.58
2018-01-17T02:03:55.906Z,20.58
2018-01-17T02:06:23.441Z,20.58
2018-01-17T02:08:53.548Z,20.58
2018-01-17T02:11:21.282Z,20.58
2018-01-17T02:13:48.787Z,20.59
2018-01-17T02:16:16.374Z,20.59
2018-01-17T02:18:43.860Z,20.59
2018-01-17T02:21:11.439Z,20.59
2018-01-17T02:23:38.961Z,20.59
2018-01-17T02:26:06.512Z,20.59
2018-01-17T02:28:34.067Z,20.60
2018-01-17T02:31:01.684Z,20.60
2018-01-17T02:33:29.246Z,20.60
2018-01-17T02:35:56.800Z,20.60
2018-01-17T02:38:24.378Z,20.59
2018-01-17T02:40:51.870Z,20.58
2018-01-17T02:43:19.354Z,20.57
2018-01-17T02:45:46.940Z,20.56
2018-01-17T02:48:14.508Z,20.56
2018-01-17T02:50:42.077Z,20.57
2018-01-17T02:53:09.672Z,20.57
2018-01-17T02:55:37.235Z,20.57
2018-01-17T02:58:04.730Z,20.58
2018-01-17T03:00:32.336Z,20.57
2018-01-17T03:02:59.891Z,20.58
2018-01-17T03:05:27.451Z,20.58
2018-01-17T03:07:55.034Z,20.59
2018-01-17T03:10:22.660Z,20.60
2018-01-17T03:12:50.324Z,20.60
2018-01-17T03:15:17.914Z,20.59
2018-01-17T03:17:45.470Z,20.60
2018-01-17T03:20:13.020Z,20.61
2018-01-17T03:22:40.608Z,20.61
2018-01-17T03:25:08.168Z,20.61
2018-01-17T03:27:35.645Z,20.60
2018-01-17T03:30:03.234Z,20.60
2018-01-17T03:32:30.729Z,20.58
2018-01-17T03:34:58.290Z,20.59
2018-01-17T03:37:25.814Z,20.59
2018-01-17T03:39:53.415Z,20.58
2018-01-17T03:42:21.016Z,20.58
2018-01-17T03:44:48.653Z,20.58
2018-01-17T03:47:16.241Z,20.59
2018-01-17T03:49:43.842Z,20.61
2018-01-17T03:52:11.415Z,20.63
2018-01-17T03:54:39.044Z,20.64
2018-01-17T03:57:06.652Z,20.66
2018-01-17T03:59:34.221Z,20.69
2018-01-17T04:02:01.817Z,20.71
2018-01-17T04:04:29.418Z,20.72
2018-01-17T04:06:57.004Z,20.73
2018-01-17T04:09:24.596Z,20.73
2018-01-17T04:11:52.122Z,20.74
2018-01-17T04:14:19.729Z,20.74
2018-01-17T04:16:47.211Z,20.74
2018-01-17T04:19:14.793Z,20.74
2018-01-17T04:21:42.374Z,20.75
2018-01-17T04:24:09.931Z,20.76
2018-01-17T04:26:37.427Z,20.77
2018-01-17T04:29:05.026Z,20.77
2018-01-17T04:31:32.509Z,20.78
2018-01-17T04:34:02.031Z,20.79
2018-01-17T04:36:31.336Z,20.79
2018-01-17T04:38:59.147Z,20.80
2018-01-17T04:41:28.588Z,20.79
2018-01-17T04:43:56.192Z,20.79
2018-01-17T04:46:23.674Z,20.79
2018-01-17T04:48:51.165Z,20.79
2018-01-17T04:51:18.756Z,20.79
2018-01-17T04:53:46.244Z,20.79
2018-01-17T04:56:14.852Z,20.76
2018-01-17T04:58:42.448Z,20.76
2018-01-17T05:01:10.023Z,20.76
2018-01-17T05:03:37.592Z,20.76
2018-01-17T05:06:05.196Z,20.77
2018-01-17T05:08:32.688Z,20.77
2018-01-17T05:11:00.177Z,20.76
2018-01-17T05:13:27.768Z,20.75
2018-01-17T05:15:55.333Z,20.75
2018-01-17T05:18:22.899Z,20.74
2018-01-17T05:20:50.496Z,20.72
2018-01-17T05:23:18.068Z,20.72
2018-01-17T05:25:45.632Z,20.71
2018-01-17T05:28:13.224Z,20.71
2018-01-17T05:30:40.803Z,20.70
2018-01-17T05:33:08.373Z,20.69
2018-01-17T05:35:35.998Z,20.69
2018-01-17T05:38:03.547Z,20.68
2018-01-17T05:40:31.117Z,20.68
2018-01-17T05:42:58.716Z,20.68
2018-01-17T05:45:26.210Z,20.68
2018-01-17T05:47:53.697Z,20.68
2018-01-17T05:50:21.287Z,20.68
2018-01-17T05:52:48.852Z,20.67
2018-01-17T05:55:16.394Z,20.67
2018-01-17T05:57:44.007Z,20.68
2018-01-17T06:00:11.612Z,20.68
2018-01-17T06:02:39.099Z,20.68
2018-01-17T06:05:06.680Z,20.68
2018-01-17T06:07:34.233Z,20.67
2018-01-17T06:10:01.808Z,20.67
2018-01-17T06:12:29.398Z,20.67
2018-01-17T06:14:56.951Z,20.66
2018-01-17T06:17:24.449Z,20.65
2018-01-17T06:19:51.999Z,20.65
2018-01-17T06:22:19.496Z,20.66
2018-01-17T06:24:47.082Z,20.68
2018-01-17T06:27:14.635Z,20.69
2018-01-17T06:29:42.216Z,20.72
2018-01-17T06:32:09.733Z,20.74
2018-01-17T06:34:37.298Z,20.76
2018-01-17T06:37:04.872Z,20.75
2018-01-17T06:39:32.630Z,20.76
2018-01-17T06:42:00.195Z,20.78
2018-01-17T06:44:27.738Z,20.79
2018-01-17T06:46:55.349Z,20.82
2018-01-17T06:49:22.857Z,20.89
2018-01-17T06:51:50.424Z,20.96
2018-01-17T06:54:18.044Z,21.05
2018-01-17T06:56:45.618Z,21.12
2018-01-17T06:59:13.202Z,21.20
2018-01-17T07:01:40.862Z,21.27
2018-01-17T07:04:08.359Z,21.32
2018-01-17T07:06:35.929Z,21.37
2018-01-17T07:09:03.615Z,21.40
2018-01-17T07:11:31.190Z,21.43
2018-01-17T07:13:58.790Z,21.45
2018-01-17T07:16:26.398Z,21.45
2018-01-17T07:18:53.979Z,21.44
2018-01-17T07:21:21.556Z,21.43
2018-01-17T07:23:49.174Z,21.41
2018-01-17T07:26:16.674Z,21.39
2018-01-17T07:28:44.478Z,21.36
2018-01-17T07:31:12.141Z,21.35
2018-01-17T07:33:39.708Z,21.33
2018-01-17T07:36:07.211Z,21.31
2018-01-17T07:38:34.899Z,21.29
2018-01-17T07:41:02.471Z,21.27
2018-01-17T07:43:30.037Z,21.25
2018-01-17T07:45:57.626Z,21.25
2018-01-17T07:48:25.188Z,21.23
2018-01-17T07:50:52.752Z,21.23
2018-01-17T07:53:20.424Z,21.21
2018-01-17T07:55:48.008Z,21.20
2018-01-17T07:58:15.591Z,21.06
2018-01-17T08:00:43.202Z,21.16
2018-01-17T08:03:10.787Z,21.15
2018-01-17T08:05:38.412Z,21.16
2018-01-17T08:08:06.011Z,21.15
2018-01-17T08:10:33.582Z,21.15
2018-01-17T08:13:01.190Z,21.14
2018-01-17T08:15:28.815Z,21.14
2018-01-17T08:17:56.383Z,21.13
2018-01-17T08:20:23.952Z,21.12
2018-01-17T08:22:51.557Z,21.12
2018-01-17T08:25:19.140Z,21.12
2018-01-17T08:27:46.711Z,21.12
2018-01-17T08:30:14.313Z,21.10
2018-01-17T08:32:41.878Z,21.10
2018-01-17T08:35:10.167Z,21.09
2018-01-17T08:37:37.714Z,21.10
2018-01-17T08:40:05.284Z,21.10
2018-01-17T08:42:32.850Z,21.11
2018-01-17T08:45:00.401Z,21.11
2018-01-17T08:47:28.030Z,21.13
2018-01-17T08:49:55.607Z,21.14
2018-01-17T08:52:23.150Z,21.15
2018-01-17T21:28:22.485Z,21.24
2018-01-17T21:30:50.042Z,21.40
2018-01-17T21:33:17.598Z,21.46
2018-01-17T21:35:45.187Z,21.48
2018-01-17T21:38:12.746Z,21.46
2018-01-17T21:40:40.307Z,21.43
2018-01-17T21:43:13.557Z,21.42
2018-01-17T21:45:46.711Z,21.41
2018-01-17T21:48:14.237Z,21.40
2018-01-17T21:50:41.722Z,21.42
2018-01-17T21:53:09.314Z,21.42
2018-01-17T21:55:36.883Z,21.42
2018-01-17T21:58:04.373Z,21.43
2018-01-17T22:00:31.932Z,21.46
2018-01-17T22:02:59.479Z,21.47
2018-01-17T22:05:26.958Z,21.47
2018-01-17T22:07:54.508Z,21.47
2018-01-17T22:10:22.558Z,21.48
2018-01-17T22:12:50.979Z,21.48
2018-01-17T22:15:18.573Z,21.46
2018-01-17T22:17:46.745Z,21.44
2018-01-17T22:20:14.859Z,21.44
2018-01-17T22:22:42.421Z,21.43
2018-01-17T22:25:09.909Z,21.43
2018-01-17T22:27:37.455Z,21.44
2018-01-17T22:30:04.933Z,21.44
2018-01-17T22:32:32.517Z,21.46
2018-01-17T22:35:00.077Z,21.46
2018-01-17T22:37:27.636Z,21.47
2018-01-17T22:39:55.197Z,21.47
2018-01-17T22:42:24.235Z,21.48
2018-01-17T22:44:51.751Z,21.49
2018-01-17T22:47:19.350Z,21.49
2018-01-17T22:49:46.905Z,21.48
2018-01-17T22:52:14.387Z,21.48
2018-01-17T22:54:41.975Z,21.49
2018-01-17T22:57:09.539Z,21.48
2018-01-17T22:59:37.028Z,21.48
2018-01-17T23:02:04.587Z,21.47
2018-01-17T23:04:32.173Z,21.44
2018-01-17T23:06:59.849Z,21.41
2018-01-17T23:09:27.333Z,21.40
2018-01-17T23:11:54.813Z,21.38
2018-01-17T23:14:22.373Z,21.37
2018-01-17T23:16:49.888Z,21.36
2018-01-17T23:19:17.449Z,21.36
2018-01-17T23:21:45.008Z,21.37
2018-01-17T23:24:12.582Z,21.37
2018-01-17T23:26:40.148Z,21.38
2018-01-17T23:29:07.708Z,21.38
2018-01-17T23:31:35.265Z,21.39
2018-01-17T23:34:02.828Z,21.41
2018-01-17T23:36:30.379Z,21.41
2018-01-17T23:38:57.917Z,21.40
2018-01-17T23:41:25.476Z,21.41
2018-01-17T23:43:53.032Z,21.40
2018-01-17T23:46:20.627Z,21.41
2018-01-17T23:48:48.180Z,21.39
2018-01-17T23:51:15.740Z,21.37
2018-01-17T23:53:43.294Z,21.33
2018-01-17T23:56:10.785Z,21.35
2018-01-17T23:58:38.341Z,21.35
